King Barley — 3FMD8 — position and weather

sailwx.info

Track history (hours):
 
Tides and Currents Weather Stations Pressure Air Temp Water Temp Dewpoint Dewpoint Depression Visibility Wind Speed Wind Dir Waves Ship Positions

King Barley

Last reported at 2017-Oct-19 01:31 UTC. Time now 2017-Oct-19 09:32 UTC.
Position N 46°19' E 030°40'.

Length 229 m; draft 12.9 m.

Type: Cargo ship. MMSI: 373049000.

Date/timePositionNaut miles runAvg speedWind from/ knotsBaromVisibWave heightAir tempDewpointWater temp
2017-Oct-19 01:31N 46°19' E 030°40'0 0.0
2017-Oct-19 01:13N 46°19' E 030°40'0 0.1
2017-Oct-19 01:00N 46°19' E 030°40'0 0.0
2017-Oct-19 00:30N 46°19' E 030°40'0 0.0
2017-Oct-18 22:49N 46°19' E 030°40'  
2017-Oct-13 05:09N 46°19' E 030°40'0 0.0
2017-Oct-13 05:00N 46°19' E 030°40'0 0.0
2017-Oct-13 04:30N 46°19' E 030°40'0 0.0
2017-Oct-13 04:00N 46°19' E 030°40'0 0.0
2017-Oct-13 03:30N 46°19' E 030°40'0 0.0
2017-Oct-13 03:00N 46°19' E 030°40'0 0.0
2017-Oct-13 02:30N 46°19' E 030°40'0 0.0
2017-Oct-13 02:00N 46°19' E 030°40'0 0.0
2017-Oct-13 01:06N 46°19' E 030°40'0 0.0
2017-Oct-13 00:42N 46°19' E 030°40'0 0.0
2017-Oct-13 00:30N 46°19' E 030°40'0 0.0
2017-Oct-13 00:00N 46°19' E 030°40'0 0.0
2017-Oct-12 22:51N 46°19' E 030°40'0 0.1
2017-Oct-12 22:30N 46°19' E 030°40'0 0.0
2017-Oct-12 22:00N 46°19' E 030°40'0 0.0
2017-Oct-12 21:30N 46°19' E 030°40'0 0.0
2017-Oct-12 20:54N 46°19' E 030°40'0 0.0
2017-Oct-12 20:30N 46°19' E 030°40'0 0.0
2017-Oct-12 20:00N 46°19' E 030°40'0 0.0
2017-Oct-12 19:30N 46°19' E 030°40'0 0.0
2017-Oct-12 18:54N 46°19' E 030°40'0 0.0
2017-Oct-12 18:30N 46°19' E 030°40'0 0.0
2017-Oct-12 18:00N 46°19' E 030°40'0 0.0
2017-Oct-12 17:30N 46°19' E 030°40'0 0.0
2017-Oct-12 17:00N 46°19' E 030°40'0 0.0
2017-Oct-10 16:54N 46°19' E 030°40'1 0.8
2017-Oct-10 15:59N 46°19' E 030°41'6 6.9
2017-Oct-10 15:09N 46°18' E 030°50'1 7.9
2017-Oct-10 14:58N 46°17' E 030°52'1010.7
2017-Oct-10 14:00N 46°27' E 030°55'510.5
2017-Oct-10 13:29N 46°33' E 030°57'2310.5
2017-Oct-10 11:20N 46°36' E 031°30'3 8.3
2017-Oct-10 11:00N 46°35' E 031°34'5 9.4
2017-Oct-10 10:30N 46°36' E 031°41'510.3
2017-Oct-10 10:00N 46°36' E 031°48'510.3
2017-Oct-10 09:30N 46°38' E 031°55'510.4
2017-Oct-10 09:00N 46°43' E 031°56'510.0
2017-Oct-10 08:30N 46°48' E 031°53'611.1
2017-Oct-10 08:00N 46°52' E 031°58'4 8.9
2017-Oct-10 07:30N 46°56' E 032°01'1 1.2
2017-Oct-10 07:00N 46°57' E 032°01'0 0.0
2017-Oct-10 06:30N 46°57' E 032°01'0 0.0
2017-Oct-10 06:00N 46°57' E 032°01'0 0.0
2017-Oct-10 05:30N 46°57' E 032°01'0 0.0
2017-Oct-10 05:00N 46°57' E 032°01'0 0.0
2017-Oct-10 04:30N 46°57' E 032°01'0 0.0
2017-Oct-10 04:00N 46°57' E 032°01'0 0.0
2017-Oct-10 03:30N 46°57' E 032°01'0 0.0
2017-Oct-10 03:00N 46°57' E 032°01'0 0.0
2017-Oct-10 02:30N 46°57' E 032°01'0 0.0
2017-Oct-10 02:00N 46°57' E 032°01'0 0.0
2017-Oct-10 01:30N 46°57' E 032°01'0 0.0
2017-Oct-10 01:00N 46°57' E 032°01'0 0.0
2017-Oct-10 00:30N 46°57' E 032°01'0 0.0
2017-Oct-10 00:00N 46°57' E 032°01'0 0.0
2017-Oct-09 23:30N 46°57' E 032°01'0 0.0
2017-Oct-09 23:00N 46°57' E 032°01'0 0.0
2017-Oct-09 22:30N 46°57' E 032°01'0 0.0
2017-Oct-09 22:00N 46°57' E 032°01'0 0.0
2017-Oct-09 21:30N 46°57' E 032°01'0 0.0
2017-Oct-09 21:00N 46°57' E 032°01'0 0.0
2017-Oct-09 20:30N 46°57' E 032°01'0 0.0
2017-Oct-09 20:00N 46°57' E 032°01'0 0.0
2017-Oct-09 19:30N 46°57' E 032°01'0 0.0
2017-Oct-09 19:00N 46°57' E 032°01'0 0.0
2017-Oct-09 18:30N 46°57' E 032°01'0 0.0
2017-Oct-09 18:00N 46°57' E 032°01'0 0.0
2017-Oct-09 17:30N 46°57' E 032°01'0 0.0
2017-Oct-09 17:00N 46°57' E 032°01'0 0.0
2017-Oct-09 16:30N 46°57' E 032°01'0 0.0
2017-Oct-09 16:00N 46°57' E 032°01'0 0.0
2017-Oct-09 15:30N 46°57' E 032°01'0 0.0
2017-Oct-09 15:00N 46°57' E 032°01'0 0.0
2017-Oct-09 14:30N 46°57' E 032°01'0 0.0
2017-Oct-09 14:00N 46°57' E 032°01'0 0.0
2017-Oct-09 13:30N 46°57' E 032°01'0 0.0
2017-Oct-09 13:00N 46°57' E 032°01'0 0.0
2017-Oct-09 12:30N 46°57' E 032°01'0 0.0
2017-Oct-09 12:00N 46°57' E 032°01'0 0.0
2017-Oct-09 11:30N 46°57' E 032°01'0 0.0
2017-Oct-09 11:00N 46°57' E 032°01'0 0.0
2017-Oct-09 10:30N 46°57' E 032°01'0 0.0
2017-Oct-09 10:00N 46°57' E 032°01'0 0.0
2017-Oct-09 09:30N 46°57' E 032°01'0 0.0
2017-Oct-09 09:00N 46°57' E 032°01'0 0.0
2017-Oct-09 08:30N 46°57' E 032°01'0 0.0
2017-Oct-09 08:00N 46°57' E 032°01'0 0.0
2017-Oct-09 07:30N 46°57' E 032°01'0 0.0
2017-Oct-09 07:00N 46°57' E 032°01'0 0.0
2017-Oct-09 06:30N 46°57' E 032°01'0 0.0
2017-Oct-09 06:00N 46°57' E 032°01'0 0.0
2017-Oct-09 05:30N 46°57' E 032°01'0 0.0
2017-Oct-09 05:00N 46°57' E 032°01'0 0.0
2017-Oct-09 04:30N 46°57' E 032°01'0 0.0
2017-Oct-09 04:00N 46°57' E 032°01'0 0.0
2017-Oct-09 03:30N 46°57' E 032°01'0 0.0
2017-Oct-09 03:00N 46°57' E 032°01'0 0.0
2017-Oct-09 02:30N 46°57' E 032°01'0 0.0
2017-Oct-09 02:00N 46°57' E 032°01'  
Track history (hours):
 
Tides and Currents Weather Stations Pressure Air Temp Water Temp Dewpoint Dewpoint Depression Visibility Wind Speed Wind Dir Waves Ship Positions

King Barley

Last reported at 2017-Oct-19 01:31 UTC. Time now 2017-Oct-19 09:32 UTC.
Position N 46°19' E 030°40'.

Length 229 m; draft 12.9 m.

Type: Cargo ship. MMSI: 373049000.

Date/timePositionNaut miles runAvg speedWind from/ knotsBaromVisibWave heightAir tempDewpointWater temp
2017-Oct-19 01:31N 46°19' E 030°40'0 0.0
2017-Oct-19 01:13N 46°19' E 030°40'0 0.1
2017-Oct-19 01:00N 46°19' E 030°40'0 0.0
2017-Oct-19 00:30N 46°19' E 030°40'0 0.0
2017-Oct-18 22:49N 46°19' E 030°40'  
2017-Oct-13 05:09N 46°19' E 030°40'0 0.0
2017-Oct-13 05:00N 46°19' E 030°40'0 0.0
2017-Oct-13 04:30N 46°19' E 030°40'0 0.0
2017-Oct-13 04:00N 46°19' E 030°40'0 0.0
2017-Oct-13 03:30N 46°19' E 030°40'0 0.0
2017-Oct-13 03:00N 46°19' E 030°40'0 0.0
2017-Oct-13 02:30N 46°19' E 030°40'0 0.0
2017-Oct-13 02:00N 46°19' E 030°40'0 0.0
2017-Oct-13 01:06N 46°19' E 030°40'0 0.0
2017-Oct-13 00:42N 46°19' E 030°40'0 0.0
2017-Oct-13 00:30N 46°19' E 030°40'0 0.0
2017-Oct-13 00:00N 46°19' E 030°40'0 0.0
2017-Oct-12 22:51N 46°19' E 030°40'0 0.1
2017-Oct-12 22:30N 46°19' E 030°40'0 0.0
2017-Oct-12 22:00N 46°19' E 030°40'0 0.0
2017-Oct-12 21:30N 46°19' E 030°40'0 0.0
2017-Oct-12 20:54N 46°19' E 030°40'0 0.0
2017-Oct-12 20:30N 46°19' E 030°40'0 0.0
2017-Oct-12 20:00N 46°19' E 030°40'0 0.0
2017-Oct-12 19:30N 46°19' E 030°40'0 0.0
2017-Oct-12 18:54N 46°19' E 030°40'0 0.0
2017-Oct-12 18:30N 46°19' E 030°40'0 0.0
2017-Oct-12 18:00N 46°19' E 030°40'0 0.0
2017-Oct-12 17:30N 46°19' E 030°40'0 0.0
2017-Oct-12 17:00N 46°19' E 030°40'0 0.0
2017-Oct-10 16:54N 46°19' E 030°40'1 0.8
2017-Oct-10 15:59N 46°19' E 030°41'6 6.9
2017-Oct-10 15:09N 46°18' E 030°50'1 7.9
2017-Oct-10 14:58N 46°17' E 030°52'1010.7
2017-Oct-10 14:00N 46°27' E 030°55'510.5
2017-Oct-10 13:29N 46°33' E 030°57'2310.5
2017-Oct-10 11:20N 46°36' E 031°30'3 8.3
2017-Oct-10 11:00N 46°35' E 031°34'5 9.4
2017-Oct-10 10:30N 46°36' E 031°41'510.3
2017-Oct-10 10:00N 46°36' E 031°48'510.3
2017-Oct-10 09:30N 46°38' E 031°55'510.4
2017-Oct-10 09:00N 46°43' E 031°56'510.0
2017-Oct-10 08:30N 46°48' E 031°53'611.1
2017-Oct-10 08:00N 46°52' E 031°58'4 8.9
2017-Oct-10 07:30N 46°56' E 032°01'1 1.2
2017-Oct-10 07:00N 46°57' E 032°01'0 0.0
2017-Oct-10 06:30N 46°57' E 032°01'0 0.0
2017-Oct-10 06:00N 46°57' E 032°01'0 0.0
2017-Oct-10 05:30N 46°57' E 032°01'0 0.0
2017-Oct-10 05:00N 46°57' E 032°01'0 0.0
2017-Oct-10 04:30N 46°57' E 032°01'0 0.0
2017-Oct-10 04:00N 46°57' E 032°01'0 0.0
2017-Oct-10 03:30N 46°57' E 032°01'0 0.0
2017-Oct-10 03:00N 46°57' E 032°01'0 0.0
2017-Oct-10 02:30N 46°57' E 032°01'0 0.0
2017-Oct-10 02:00N 46°57' E 032°01'0 0.0
2017-Oct-10 01:30N 46°57' E 032°01'0 0.0
2017-Oct-10 01:00N 46°57' E 032°01'0 0.0
2017-Oct-10 00:30N 46°57' E 032°01'0 0.0
2017-Oct-10 00:00N 46°57' E 032°01'0 0.0
2017-Oct-09 23:30N 46°57' E 032°01'0 0.0
2017-Oct-09 23:00N 46°57' E 032°01'0 0.0
2017-Oct-09 22:30N 46°57' E 032°01'0 0.0
2017-Oct-09 22:00N 46°57' E 032°01'0 0.0
2017-Oct-09 21:30N 46°57' E 032°01'0 0.0
2017-Oct-09 21:00N 46°57' E 032°01'0 0.0
2017-Oct-09 20:30N 46°57' E 032°01'0 0.0
2017-Oct-09 20:00N 46°57' E 032°01'0 0.0
2017-Oct-09 19:30N 46°57' E 032°01'0 0.0
2017-Oct-09 19:00N 46°57' E 032°01'0 0.0
2017-Oct-09 18:30N 46°57' E 032°01'0 0.0
2017-Oct-09 18:00N 46°57' E 032°01'0 0.0
2017-Oct-09 17:30N 46°57' E 032°01'0 0.0
2017-Oct-09 17:00N 46°57' E 032°01'0 0.0
2017-Oct-09 16:30N 46°57' E 032°01'0 0.0
2017-Oct-09 16:00N 46°57' E 032°01'0 0.0
2017-Oct-09 15:30N 46°57' E 032°01'0 0.0
2017-Oct-09 15:00N 46°57' E 032°01'0 0.0
2017-Oct-09 14:30N 46°57' E 032°01'0 0.0
2017-Oct-09 14:00N 46°57' E 032°01'0 0.0
2017-Oct-09 13:30N 46°57' E 032°01'0 0.0
2017-Oct-09 13:00N 46°57' E 032°01'0 0.0
2017-Oct-09 12:30N 46°57' E 032°01'0 0.0
2017-Oct-09 12:00N 46°57' E 032°01'0 0.0
2017-Oct-09 11:30N 46°57' E 032°01'0 0.0
2017-Oct-09 11:00N 46°57' E 032°01'0 0.0
2017-Oct-09 10:30N 46°57' E 032°01'0 0.0
2017-Oct-09 10:00N 46°57' E 032°01'0 0.0
2017-Oct-09 09:30N 46°57' E 032°01'0 0.0
2017-Oct-09 09:00N 46°57' E 032°01'0 0.0
2017-Oct-09 08:30N 46°57' E 032°01'0 0.0
2017-Oct-09 08:00N 46°57' E 032°01'0 0.0
2017-Oct-09 07:30N 46°57' E 032°01'0 0.0
2017-Oct-09 07:00N 46°57' E 032°01'0 0.0
2017-Oct-09 06:30N 46°57' E 032°01'0 0.0
2017-Oct-09 06:00N 46°57' E 032°01'0 0.0
2017-Oct-09 05:30N 46°57' E 032°01'0 0.0
2017-Oct-09 05:00N 46°57' E 032°01'0 0.0
2017-Oct-09 04:30N 46°57' E 032°01'0 0.0
2017-Oct-09 04:00N 46°57' E 032°01'0 0.0
2017-Oct-09 03:30N 46°57' E 032°01'0 0.0
2017-Oct-09 03:00N 46°57' E 032°01'0 0.0
2017-Oct-09 02:30N 46°57' E 032°01'0 0.0
2017-Oct-09 02:00N 46°57' E 032°01'  

Dump ship's entire track history